Time;durP1;ratioP1;P1;durP2;ratioP2;P2;SDS_P1;SDS_P2;PMS_P1;PMS_P2;Temp;Humidity;BMP_temperature;BMP_pressure;BME280_temperature;BME280_humidity;BME280_pressure;Samples;Min_cycle;Max_cycle;Signal;HPM_P1;HPM_P2
2022/02/22 00:01:30;;;;;;;27.38;2.70;;;5.80;99.90;;;;;;5075445;28;20119;-83
2022/02/22 00:03:57;;;;;;;27.60;3.05;;;5.70;99.90;;;;;;5094339;28;20042;-83
2022/02/22 00:06:24;;;;;;;27.23;2.55;;;5.70;99.90;;;;;;5065363;28;20020;-84
2022/02/22 00:08:50;;;;;;;28.85;2.85;;;5.70;99.90;;;;;;5110110;27;20036;-82
2022/02/22 00:11:15;;;;;;;25.65;2.55;;;5.70;99.90;;;;;;5076021;28;20039;-86
2022/02/22 00:13:41;;;;;;;34.97;3.38;;;5.70;99.90;;;;;;5093746;28;20181;-86
2022/02/22 00:16:07;;;;;;;33.08;3.30;;;5.90;99.90;;;;;;5110289;27;20032;-84
2022/02/22 00:18:33;;;;;;;34.78;2.83;;;6.00;99.90;;;;;;5092552;28;20038;-84
2022/02/22 00:20:59;;;;;;;31.20;2.22;;;6.00;99.90;;;;;;5054072;28;20028;-84
2022/02/22 00:23:24;;;;;;;26.10;2.03;;;5.90;99.90;;;;;;5092478;28;20038;-82
2022/02/22 00:25:50;;;;;;;22.35;2.25;;;5.90;99.90;;;;;;5072072;28;20035;-87
2022/02/22 00:28:19;;;;;;;35.40;4.03;;;6.00;99.90;;;;;;5075676;28;20085;-86
2022/02/22 00:30:49;;;;;;;37.08;3.97;;;6.10;99.90;;;;;;5094640;28;20047;-86
2022/02/22 00:33:15;;;;;;;28.30;2.25;;;6.00;99.90;;;;;;5109866;27;20042;-86
2022/02/22 00:35:41;;;;;;;27.48;2.83;;;6.00;99.90;;;;;;5076391;28;20027;-84
2022/02/22 00:38:07;;;;;;;24.80;2.05;;;6.00;99.90;;;;;;5074148;28;20537;-84
2022/02/22 00:40:33;;;;;;;22.08;2.75;;;5.90;99.90;;;;;;5090237;28;20023;-85
2022/02/22 00:42:59;;;;;;;23.85;2.05;;;6.00;99.90;;;;;;5074085;28;20472;-83
2022/02/22 00:45:24;;;;;;;29.52;2.92;;;6.00;99.90;;;;;;5071139;28;20038;-83
2022/02/22 00:47:50;;;;;;;28.50;3.25;;;6.10;99.90;;;;;;5059872;28;20577;-83
2022/02/22 00:50:15;;;;;;;33.88;3.03;;;6.10;99.90;;;;;;5076027;28;20113;-85
2022/02/22 00:52:41;;;;;;;26.70;2.53;;;6.10;99.90;;;;;;5074705;28;20071;-85
2022/02/22 00:55:07;;;;;;;26.80;2.08;;;6.00;99.90;;;;;;5110298;28;20121;-83
2022/02/22 00:57:35;;;;;;;22.08;1.85;;;5.90;99.90;;;;;;5076126;28;20031;-85
2022/02/22 01:00:01;;;;;;;24.17;2.47;;;5.80;99.90;;;;;;5076902;28;20031;-84
2022/02/22 01:02:27;;;;;;;25.15;2.58;;;5.80;99.90;;;;;;5074417;28;20122;-84
2022/02/22 01:04:52;;;;;;;20.65;1.60;;;5.70;99.90;;;;;;5072118;28;20174;-84
2022/02/22 01:07:18;;;;;;;21.48;1.45;;;5.60;99.90;;;;;;5070762;28;20123;-84
2022/02/22 01:09:47;;;;;;;27.73;2.65;;;5.60;99.90;;;;;;5074972;28;20036;-84
2022/02/22 01:12:15;;;;;;;24.90;2.38;;;5.60;99.90;;;;;;5074044;28;20048;-83
2022/02/22 01:14:41;;;;;;;30.38;2.42;;;5.60;99.90;;;;;;5074082;28;20027;-84
2022/02/22 01:17:07;;;;;;;25.90;2.22;;;5.60;99.90;;;;;;5070021;28;20035;-83
2022/02/22 01:19:33;;;;;;;24.33;2.45;;;5.60;99.90;;;;;;5091589;28;20057;-83
2022/02/22 01:21:58;;;;;;;23.05;2.28;;;5.60;99.90;;;;;;5110288;28;20035;-83
2022/02/22 01:24:24;;;;;;;21.52;2.22;;;5.50;99.90;;;;;;5078156;28;20028;-83
2022/02/22 01:26:49;;;;;;;21.13;1.70;;;5.50;99.90;;;;;;5091744;28;20043;-85
2022/02/22 01:29:15;;;;;;;20.48;2.35;;;5.40;99.90;;;;;;5087843;28;20035;-83
2022/02/22 01:31:41;;;;;;;27.08;2.25;;;5.30;99.90;;;;;;5072417;28;20020;-83
2022/02/22 01:34:07;;;;;;;25.23;1.85;;;5.30;99.90;;;;;;5091416;28;20492;-83
2022/02/22 01:36:33;;;;;;;33.88;3.13;;;5.20;99.90;;;;;;5075098;28;20034;-84
2022/02/22 01:38:59;;;;;;;31.70;2.67;;;5.30;99.90;;;;;;5069989;28;20039;-84
2022/02/22 01:41:25;;;;;;;28.90;2.53;;;5.20;99.90;;;;;;5062731;28;20274;-83
2022/02/22 01:43:51;;;;;;;25.15;2.15;;;5.20;99.90;;;;;;5078659;28;20062;-84
2022/02/22 01:46:17;;;;;;;28.27;2.95;;;5.10;99.90;;;;;;5061508;28;20105;-85
2022/02/22 01:48:43;;;;;;;34.42;2.25;;;5.20;99.90;;;;;;5095606;28;20028;-83
2022/02/22 01:51:09;;;;;;;29.92;3.47;;;5.20;99.90;;;;;;5094585;28;20089;-84
2022/02/22 01:53:35;;;;;;;27.20;2.40;;;5.30;99.90;;;;;;5094109;28;20495;-84
2022/02/22 01:56:02;;;;;;;25.42;2.20;;;5.20;99.90;;;;;;5089215;28;20520;-83
2022/02/22 01:58:30;;;;;;;26.65;2.40;;;5.10;99.90;;;;;;5077590;28;20039;-83
2022/02/22 02:01:03;;;;;;;23.02;2.10;;;5.20;99.90;;;;;;5091021;28;22121;-83
2022/02/22 02:03:28;;;;;;;20.20;1.48;;;5.10;99.90;;;;;;5055695;28;20139;-83
2022/02/22 02:05:55;;;;;;;18.55;1.55;;;5.00;99.90;;;;;;5077227;28;20050;-83
2022/02/22 02:08:20;;;;;;;34.78;2.35;;;5.00;99.90;;;;;;5066833;28;20096;-84
2022/02/22 02:10:46;;;;;;;22.42;2.63;;;5.10;99.90;;;;;;5094982;28;20441;-85
2022/02/22 02:13:12;;;;;;;30.40;2.35;;;5.00;99.90;;;;;;5112275;27;20036;-83
2022/02/22 02:15:38;;;;;;;21.23;1.67;;;4.90;99.90;;;;;;5096418;27;22074;-82
2022/02/22 02:18:04;;;;;;;27.23;1.45;;;5.00;99.90;;;;;;5078396;28;20035;-84
2022/02/22 02:20:29;;;;;;;24.10;1.70;;;5.00;99.90;;;;;;5063108;28;20027;-84
2022/02/22 02:22:56;;;;;;;19.02;1.33;;;4.90;99.90;;;;;;5067045;28;20122;-84
2022/02/22 02:25:22;;;;;;;19.20;1.63;;;4.80;99.90;;;;;;5094726;28;20027;-84
2022/02/22 02:27:48;;;;;;;22.65;2.83;;;4.70;99.90;;;;;;5071852;28;20032;-83
2022/02/22 02:30:15;;;;;;;23.38;2.53;;;4.60;99.90;;;;;;5096123;28;20031;-84
2022/02/22 02:32:41;;;;;;;20.08;2.28;;;4.60;99.90;;;;;;5095500;28;20050;-84
2022/02/22 02:35:08;;;;;;;22.30;2.33;;;4.60;99.90;;;;;;5078427;28;20329;-85
2022/02/22 02:37:39;;;;;;;26.23;1.63;;;4.50;99.90;;;;;;5066553;28;20024;-83
2022/02/22 02:40:07;;;;;;;25.13;3.85;;;4.40;99.90;;;;;;5076435;28;20035;-83
2022/02/22 02:42:32;;;;;;;24.00;2.53;;;4.40;99.90;;;;;;5093694;28;20024;-85
2022/02/22 02:44:58;;;;;;;36.22;3.13;;;4.30;99.90;;;;;;5072162;28;20024;-84
2022/02/22 02:47:24;;;;;;;24.92;1.73;;;4.40;99.90;;;;;;5090456;28;20027;-83
2022/02/22 02:49:50;;;;;;;31.08;2.45;;;4.30;99.90;;;;;;5083111;28;20051;-84
2022/02/22 02:52:16;;;;;;;32.90;2.85;;;4.30;99.90;;;;;;5091020;28;20504;-84
2022/02/22 02:54:41;;;;;;;25.80;2.33;;;4.20;99.90;;;;;;5079592;28;20062;-84
2022/02/22 02:57:09;;;;;;;25.95;2.47;;;4.20;99.90;;;;;;5060181;28;20047;-83
2022/02/22 02:59:35;;;;;;;22.50;1.48;;;4.10;99.90;;;;;;5072430;28;20031;-83
2022/02/22 03:02:00;;;;;;;19.20;1.75;;;4.10;99.90;;;;;;5076770;28;20533;-84
2022/02/22 03:04:26;;;;;;;23.17;2.67;;;4.10;99.90;;;;;;5089273;28;20034;-83
2022/02/22 03:06:51;;;;;;;29.40;1.85;;;4.10;99.90;;;;;;5109649;27;20024;-82
2022/02/22 03:09:17;;;;;;;31.35;2.15;;;4.10;99.90;;;;;;5094831;28;20803;-85
2022/02/22 03:11:43;;;;;;;30.60;2.25;;;4.10;99.90;;;;;;5059112;28;20310;-84
2022/02/22 03:14:09;;;;;;;23.88;3.22;;;4.10;99.90;;;;;;5093738;28;20633;-83
2022/02/22 03:16:35;;;;;;;20.02;1.60;;;4.10;99.90;;;;;;5053925;28;20051;-84
2022/02/22 03:19:04;;;;;;;20.63;1.63;;;4.00;99.90;;;;;;5078499;28;20032;-82
2022/02/22 03:21:30;;;;;;;20.10;1.38;;;4.10;99.90;;;;;;5093292;28;20040;-84
2022/02/22 03:23:58;;;;;;;19.35;1.50;;;4.00;99.90;;;;;;5059405;28;20024;-84
2022/02/22 03:26:24;;;;;;;19.08;1.33;;;3.90;99.90;;;;;;5076243;28;20027;-84
2022/02/22 03:28:49;;;;;;;21.17;1.77;;;4.00;99.90;;;;;;5076735;28;20035;-82
2022/02/22 03:31:16;;;;;;;28.90;1.90;;;3.90;99.90;;;;;;5076018;28;20118;-84
2022/02/22 03:33:42;;;;;;;28.73;2.10;;;4.00;99.90;;;;;;5070587;28;20508;-83
2022/02/22 03:36:08;;;;;;;24.83;2.45;;;3.90;99.90;;;;;;5110554;27;20162;-83
2022/02/22 03:38:33;;;;;;;19.85;1.83;;;3.90;99.90;;;;;;5092620;28;20585;-83
2022/02/22 03:41:01;;;;;;;21.13;1.02;;;3.90;99.90;;;;;;5093344;28;20899;-83
2022/02/22 03:43:27;;;;;;;20.60;1.73;;;3.90;99.90;;;;;;5057974;28;20032;-83
2022/02/22 03:45:53;;;;;;;26.63;1.92;;;3.90;99.90;;;;;;5076025;28;20035;-84
2022/02/22 03:48:19;;;;;;;26.35;2.20;;;3.90;99.90;;;;;;5074801;28;20471;-82
2022/02/22 03:50:45;;;;;;;19.48;1.73;;;3.80;99.90;;;;;;5093397;28;20115;-83
2022/02/22 03:53:11;;;;;;;21.02;1.27;;;3.70;99.90;;;;;;5071286;28;20043;-82
2022/02/22 03:55:36;;;;;;;18.42;1.33;;;3.80;99.90;;;;;;5075224;28;20062;-83
2022/02/22 03:58:02;;;;;;;22.10;1.02;;;3.80;99.90;;;;;;5073553;28;20118;-83
2022/02/22 04:00:28;;;;;;;23.40;1.42;;;3.80;99.90;;;;;;5059646;28;20090;-83
2022/02/22 04:02:54;;;;;;;19.77;1.67;;;3.80;99.90;;;;;;5059171;28;20092;-83
2022/02/22 04:05:20;;;;;;;14.77;0.70;;;3.90;99.90;;;;;;5060573;28;20039;-82
2022/02/22 04:07:46;;;;;;;19.92;1.27;;;3.70;99.90;;;;;;5092550;28;20110;-84
2022/02/22 04:10:12;;;;;;;20.55;1.27;;;3.80;99.90;;;;;;5058012;28;20034;-83
2022/02/22 04:12:39;;;;;;;9.85;0.50;;;3.80;99.90;;;;;;5074397;28;20042;-83
2022/02/22 04:15:06;;;;;;;17.05;0.80;;;3.80;99.90;;;;;;5075837;28;20118;-84
2022/02/22 04:17:32;;;;;;;15.07;0.90;;;3.80;99.90;;;;;;5079727;28;20110;-82
2022/02/22 04:19:58;;;;;;;20.55;1.63;;;3.80;99.90;;;;;;5075508;28;20024;-83
2022/02/22 04:22:23;;;;;;;18.45;1.20;;;3.80;99.90;;;;;;5069550;28;20511;-83
2022/02/22 04:24:49;;;;;;;17.25;1.17;;;3.80;99.90;;;;;;5071164;28;20178;-83
2022/02/22 04:27:15;;;;;;;16.83;1.10;;;3.80;99.90;;;;;;5057790;28;20088;-83
2022/02/22 04:29:41;;;;;;;21.33;2.13;;;3.80;99.90;;;;;;5075329;28;20032;-82
2022/02/22 04:32:07;;;;;;;20.10;2.40;;;3.80;99.90;;;;;;5057792;28;20039;-83
2022/02/22 04:34:33;;;;;;;23.98;1.60;;;3.90;99.90;;;;;;5058334;28;20036;-83
2022/02/22 04:36:59;;;;;;;25.20;1.92;;;3.90;99.90;;;;;;5093576;28;20028;-82
2022/02/22 04:39:25;;;;;;;25.33;1.77;;;3.90;99.90;;;;;;5080897;28;20038;-84
2022/02/22 04:41:51;;;;;;;29.80;2.63;;;3.90;99.90;;;;;;5070179;28;20472;-83
2022/02/22 04:44:17;;;;;;;16.23;1.10;;;3.80;99.90;;;;;;5074741;28;20031;-84
2022/02/22 04:46:43;;;;;;;21.77;1.15;;;3.90;99.90;;;;;;5075301;28;20027;-82
2022/02/22 04:49:09;;;;;;;31.35;1.55;;;3.90;99.90;;;;;;5072977;28;20447;-83
2022/02/22 04:51:41;;;;;;;19.02;2.20;;;3.90;99.90;;;;;;5075731;28;20436;-83
2022/02/22 04:54:08;;;;;;;23.40;2.10;;;4.00;99.90;;;;;;5090831;28;20174;-84
2022/02/22 04:56:34;;;;;;;20.52;1.40;;;4.00;99.90;;;;;;5056897;28;20116;-82
2022/02/22 04:58:59;;;;;;;18.95;1.33;;;4.00;99.90;;;;;;5070127;28;20758;-82
2022/02/22 05:01:25;;;;;;;27.67;1.95;;;4.00;99.90;;;;;;5092128;28;20384;-84
2022/02/22 05:03:51;;;;;;;32.00;1.60;;;4.00;99.90;;;;;;5073097;28;20032;-84
2022/02/22 05:06:16;;;;;;;20.85;1.90;;;4.00;99.90;;;;;;5092149;28;20024;-82
2022/02/22 05:08:42;;;;;;;18.00;1.70;;;4.00;99.90;;;;;;5056945;28;20046;-83
2022/02/22 05:11:08;;;;;;;15.30;0.85;;;4.00;99.90;;;;;;5075289;28;20051;-83
2022/02/22 05:13:35;;;;;;;16.65;0.88;;;3.80;99.90;;;;;;5085894;28;20506;-84
2022/02/22 05:16:01;;;;;;;13.18;1.13;;;3.80;99.90;;;;;;5067359;28;20082;-83
2022/02/22 05:18:27;;;;;;;13.38;0.73;;;3.70;99.90;;;;;;5111721;27;20589;-83
2022/02/22 05:20:55;;;;;;;7.93;0.50;;;3.60;99.90;;;;;;5077720;28;20020;-83
2022/02/22 05:23:33;;;;;;;4.90;0.57;;;3.50;99.90;;;;;;5060208;28;20032;-83
2022/02/22 05:25:59;;;;;;;6.50;0.50;;;3.40;99.90;;;;;;5095192;28;20117;-83
2022/02/22 05:28:26;;;;;;;6.53;0.30;;;3.30;99.90;;;;;;5077814;28;20664;-82
2022/02/22 05:30:52;;;;;;;10.50;0.98;;;3.20;99.90;;;;;;5073871;28;20028;-83
2022/02/22 05:33:19;;;;;;;7.80;0.30;;;3.20;99.90;;;;;;5077641;28;20127;-82
2022/02/22 05:35:46;;;;;;;10.10;0.40;;;3.20;99.90;;;;;;5073256;28;20036;-82
2022/02/22 05:38:12;;;;;;;6.47;0.80;;;3.20;99.90;;;;;;5075925;28;20445;-82
2022/02/22 05:40:38;;;;;;;7.03;0.45;;;3.10;99.90;;;;;;5078075;28;20028;-84
2022/02/22 05:43:04;;;;;;;8.65;0.40;;;3.20;99.90;;;;;;5078379;28;20032;-82
2022/02/22 05:45:29;;;;;;;3.28;0.30;;;3.10;99.90;;;;;;5072219;28;20231;-82
2022/02/22 05:47:55;;;;;;;6.45;0.35;;;3.10;99.90;;;;;;5091249;28;20471;-83
2022/02/22 05:50:21;;;;;;;5.72;0.40;;;3.10;99.90;;;;;;5077633;28;20031;-83
2022/02/22 05:52:46;;;;;;;8.90;0.30;;;3.00;99.90;;;;;;5071740;28;20577;-84
2022/02/22 05:55:12;;;;;;;5.05;0.22;;;2.90;99.90;;;;;;5079071;28;20035;-82
2022/02/22 05:57:38;;;;;;;8.43;0.32;;;2.90;99.90;;;;;;5058852;28;20387;-82
2022/02/22 06:00:06;;;;;;;5.53;0.40;;;3.00;99.90;;;;;;5066973;28;20035;-83
2022/02/22 06:02:32;;;;;;;7.03;0.60;;;3.10;99.90;;;;;;5076867;28;20152;-82
2022/02/22 06:04:58;;;;;;;8.93;0.55;;;3.10;99.90;;;;;;5094682;28;20063;-83
2022/02/22 06:07:23;;;;;;;11.57;0.43;;;3.10;99.90;;;;;;5077833;28;20486;-82
2022/02/22 06:09:49;;;;;;;6.88;0.45;;;3.20;99.90;;;;;;5060695;28;20040;-82
2022/02/22 06:12:14;;;;;;;6.57;0.43;;;3.20;99.90;;;;;;5067902;28;20045;-82
2022/02/22 06:14:40;;;;;;;5.00;0.32;;;3.10;99.90;;;;;;5072422;28;20054;-82
2022/02/22 06:17:06;;;;;;;6.13;0.35;;;3.20;99.90;;;;;;5059421;28;20045;-83
2022/02/22 06:19:31;;;;;;;7.75;0.85;;;3.10;99.90;;;;;;5094845;28;20032;-82
2022/02/22 06:21:57;;;;;;;7.15;0.50;;;3.10;99.90;;;;;;5095348;28;20028;-82
2022/02/22 06:24:23;;;;;;;4.72;0.20;;;3.10;99.90;;;;;;5079669;28;20441;-84
2022/02/22 06:26:49;;;;;;;4.65;0.20;;;3.00;99.90;;;;;;5066483;28;20111;-83
2022/02/22 06:29:14;;;;;;;5.43;0.30;;;3.00;99.90;;;;;;5093787;28;20116;-81
2022/02/22 06:31:40;;;;;;;6.93;0.25;;;3.00;99.90;;;;;;5109752;27;20088;-83
2022/02/22 06:34:06;;;;;;;11.07;0.68;;;3.00;99.90;;;;;;5060557;28;20051;-83
2022/02/22 06:36:33;;;;;;;7.88;0.45;;;2.90;99.90;;;;;;5071191;28;20028;-84
2022/02/22 06:39:00;;;;;;;5.30;0.30;;;3.00;99.90;;;;;;5079416;28;20032;-82
2022/02/22 06:41:26;;;;;;;6.95;0.40;;;2.90;99.90;;;;;;5075494;28;20204;-83
2022/02/22 06:43:51;;;;;;;4.03;0.30;;;2.90;99.90;;;;;;5075760;28;20035;-83
2022/02/22 06:46:17;;;;;;;7.28;0.20;;;2.80;99.90;;;;;;5077004;28;20035;-82
2022/02/22 06:48:43;;;;;;;4.63;0.30;;;2.90;99.90;;;;;;5109150;27;20054;-83
2022/02/22 06:51:08;;;;;;;2.28;0.20;;;3.00;99.90;;;;;;5093288;28;20113;-82
2022/02/22 06:53:34;;;;;;;5.15;0.20;;;3.00;99.90;;;;;;5094106;28;20055;-83
2022/02/22 06:56:00;;;;;;;3.70;0.22;;;3.20;99.90;;;;;;5081582;28;20028;-83
2022/02/22 06:58:26;;;;;;;8.23;0.30;;;3.20;99.90;;;;;;5093793;27;20061;-83
2022/02/22 07:00:52;;;;;;;5.20;0.40;;;3.30;99.90;;;;;;5091631;28;20027;-83
2022/02/22 07:03:18;;;;;;;3.55;0.40;;;3.30;99.90;;;;;;5070209;28;20032;-83
2022/02/22 07:05:44;;;;;;;6.63;0.63;;;3.30;99.90;;;;;;5093266;28;20031;-84
2022/02/22 07:08:10;;;;;;;9.55;0.40;;;3.20;99.90;;;;;;5063988;28;20117;-83
2022/02/22 07:10:35;;;;;;;5.82;0.55;;;3.30;99.90;;;;;;5073632;28;20034;-83
2022/02/22 07:13:01;;;;;;;6.38;0.73;;;3.20;99.90;;;;;;5090944;28;20096;-85
2022/02/22 07:15:28;;;;;;;7.28;0.30;;;3.20;99.90;;;;;;5105166;27;20077;-84
2022/02/22 07:17:58;;;;;;;4.20;0.85;;;3.30;99.90;;;;;;5089300;27;20036;-83
2022/02/22 07:20:26;;;;;;;5.22;0.65;;;3.40;99.90;;;;;;5106996;27;20051;-84
2022/02/22 07:22:57;;;;;;;5.22;0.30;;;3.60;99.90;;;;;;5073579;27;20028;-84
2022/02/22 07:25:24;;;;;;;9.38;0.70;;;3.80;99.90;;;;;;5074880;28;20035;-84
2022/02/22 07:27:51;;;;;;;11.18;0.47;;;4.00;99.90;;;;;;5076544;28;20044;-84
2022/02/22 07:30:18;;;;;;;7.85;0.32;;;4.10;99.90;;;;;;5091230;28;20031;-83
2022/02/22 07:32:45;;;;;;;7.25;0.30;;;4.10;99.90;;;;;;5072921;27;20391;-85
2022/02/22 07:35:12;;;;;;;8.85;0.40;;;4.20;99.90;;;;;;5075683;28;20051;-82
2022/02/22 07:37:41;;;;;;;4.63;0.30;;;4.20;99.90;;;;;;5073392;28;20304;-83
2022/02/22 07:40:09;;;;;;;10.20;0.50;;;4.20;99.90;;;;;;5084169;28;20044;-84
2022/02/22 07:42:39;;;;;;;6.13;0.40;;;4.20;99.90;;;;;;5086964;28;20031;-83
2022/02/22 07:45:06;;;;;;;7.80;0.50;;;4.20;99.90;;;;;;5091070;28;20023;-83
2022/02/22 07:47:32;;;;;;;5.63;0.40;;;4.20;99.90;;;;;;5075065;28;20071;-84
2022/02/22 07:49:58;;;;;;;6.60;0.60;;;4.20;99.90;;;;;;5056702;28;20126;-83
2022/02/22 07:52:28;;;;;;;6.22;0.40;;;4.10;99.90;;;;;;5090111;27;20071;-83
2022/02/22 07:54:54;;;;;;;11.00;0.50;;;4.10;99.90;;;;;;5057929;28;20149;-84
2022/02/22 07:57:20;;;;;;;6.47;0.70;;;4.10;99.90;;;;;;5084181;28;20038;-84
2022/02/22 07:59:46;;;;;;;6.07;0.50;;;4.10;99.90;;;;;;5090913;28;20085;-84
2022/02/22 08:02:12;;;;;;;7.93;1.08;;;4.10;99.90;;;;;;5059454;28;20045;-84
2022/02/22 08:04:40;;;;;;;4.13;0.60;;;4.10;99.90;;;;;;5065628;28;20123;-84
2022/02/22 08:07:06;;;;;;;10.07;0.50;;;4.20;99.90;;;;;;5078371;28;20064;-84
2022/02/22 08:09:31;;;;;;;6.30;0.57;;;4.30;99.90;;;;;;5077114;28;20032;-85
2022/02/22 08:11:57;;;;;;;5.88;0.40;;;4.40;99.90;;;;;;5068775;28;20027;-84
2022/02/22 08:14:23;;;;;;;6.05;0.68;;;4.50;99.90;;;;;;5106788;27;20024;-83
2022/02/22 08:16:50;;;;;;;6.90;0.65;;;4.70;99.90;;;;;;5106320;27;20396;-83
2022/02/22 08:19:16;;;;;;;6.68;0.43;;;4.80;99.90;;;;;;5054345;28;20127;-83
2022/02/22 08:21:42;;;;;;;8.45;0.60;;;4.90;99.90;;;;;;5090865;28;20126;-84
2022/02/22 08:24:08;;;;;;;6.65;0.40;;;5.00;99.90;;;;;;5059050;28;20034;-84
2022/02/22 08:26:34;;;;;;;7.35;0.40;;;5.10;99.90;;;;;;5092105;27;20042;-85
2022/02/22 08:28:59;;;;;;;7.07;0.60;;;5.20;99.90;;;;;;5078375;28;20040;-85
2022/02/22 08:31:26;;;;;;;6.28;0.70;;;5.20;99.90;;;;;;5090214;27;20120;-84
2022/02/22 08:33:58;;;;;;;5.35;0.68;;;5.30;99.90;;;;;;5088876;28;20458;-85
2022/02/22 08:36:26;;;;;;;11.65;0.85;;;5.30;99.90;;;;;;5074557;27;20051;-86
2022/02/22 08:38:53;;;;;;;9.38;0.80;;;5.30;99.90;;;;;;5053988;28;20077;-84
2022/02/22 08:41:18;;;;;;;10.68;0.88;;;5.40;99.90;;;;;;5045347;28;20049;-86
2022/02/22 08:43:44;;;;;;;9.35;0.75;;;5.40;99.90;;;;;;5050200;28;20523;-86
2022/02/22 08:46:09;;;;;;;10.77;0.85;;;5.40;99.90;;;;;;5047976;28;20126;-86
2022/02/22 08:48:35;;;;;;;13.27;1.13;;;5.50;99.90;;;;;;5037462;28;20052;-86
2022/02/22 08:51:00;;;;;;;9.13;0.95;;;5.50;99.90;;;;;;5020936;28;20040;-85
2022/02/22 08:53:26;;;;;;;10.60;1.33;;;5.60;99.90;;;;;;5024738;28;20091;-85
2022/02/22 08:55:52;;;;;;;8.75;0.90;;;5.60;99.90;;;;;;5048642;28;20086;-86
2022/02/22 08:58:17;;;;;;;9.27;0.98;;;5.60;99.90;;;;;;5051114;28;20496;-86
2022/02/22 09:00:43;;;;;;;7.80;1.30;;;5.70;99.90;;;;;;5034547;28;20044;-88
2022/02/22 09:03:09;;;;;;;12.02;1.00;;;5.70;99.90;;;;;;5014459;28;20033;-87
2022/02/22 09:05:34;;;;;;;7.50;0.80;;;5.80;99.90;;;;;;5049641;28;20037;-86
2022/02/22 09:08:00;;;;;;;13.60;0.90;;;5.70;99.90;;;;;;5033457;28;20032;-85
2022/02/22 09:10:27;;;;;;;6.60;0.60;;;5.80;99.90;;;;;;4993848;28;20017;-86
2022/02/22 09:12:53;;;;;;;9.57;0.93;;;6.00;99.90;;;;;;5020206;28;20049;-85
2022/02/22 09:15:20;;;;;;;6.60;0.80;;;6.00;99.90;;;;;;5043579;28;20032;-87
2022/02/22 09:17:46;;;;;;;12.15;1.38;;;6.10;99.90;;;;;;5027719;28;20053;-87
2022/02/22 09:20:15;;;;;;;11.68;1.67;;;6.20;99.90;;;;;;5035230;28;20029;-86
2022/02/22 09:22:40;;;;;;;7.60;1.02;;;6.10;99.90;;;;;;5038975;28;20032;-88
2022/02/22 09:25:08;;;;;;;7.20;0.70;;;6.20;99.90;;;;;;5049370;28;20057;-86
2022/02/22 09:27:33;;;;;;;10.48;1.50;;;6.40;99.90;;;;;;5028237;28;20029;-86
2022/02/22 09:29:59;;;;;;;9.20;1.50;;;6.50;99.90;;;;;;5023171;28;20039;-87
2022/02/22 09:32:25;;;;;;;9.90;1.00;;;6.50;99.90;;;;;;5029721;28;20051;-87
2022/02/22 09:34:53;;;;;;;14.00;2.13;;;6.60;99.90;;;;;;5035764;28;20039;-89
2022/02/22 09:37:19;;;;;;;12.55;1.63;;;6.70;99.90;;;;;;5049779;28;20053;-87
2022/02/22 09:39:45;;;;;;;10.82;1.60;;;6.80;99.90;;;;;;5043888;28;20136;-86
2022/02/22 09:42:11;;;;;;;12.05;1.33;;;6.90;99.90;;;;;;5034185;28;20033;-86
2022/02/22 09:44:39;;;;;;;10.27;0.90;;;7.00;99.90;;;;;;5034228;28;20037;-86
2022/02/22 09:47:05;;;;;;;10.48;1.25;;;7.10;99.90;;;;;;5038473;28;20036;-86
2022/02/22 09:49:31;;;;;;;12.68;1.27;;;7.10;99.90;;;;;;5040685;28;20693;-86
2022/02/22 09:51:57;;;;;;;5.43;1.13;;;7.20;99.90;;;;;;5034911;28;20039;-86
2022/02/22 09:54:24;;;;;;;11.18;1.20;;;7.20;99.90;;;;;;5017876;28;20049;-88
2022/02/22 09:56:50;;;;;;;8.30;0.93;;;7.20;99.90;;;;;;5015836;28;20037;-87
2022/02/22 09:59:18;;;;;;;7.95;1.00;;;7.20;99.90;;;;;;5035030;28;20032;-88
2022/02/22 10:01:46;;;;;;;15.65;1.38;;;7.20;99.90;;;;;;5035771;28;20516;-87
2022/02/22 10:04:12;;;;;;;12.13;1.02;;;7.10;99.90;;;;;;5024260;28;20037;-87
2022/02/22 10:06:38;;;;;;;11.15;1.30;;;7.20;99.90;;;;;;5011905;28;20025;-88
2022/02/22 10:09:05;;;;;;;11.55;1.70;;;7.20;99.90;;;;;;5054281;28;20036;-87
2022/02/22 10:11:51;;;;;;;9.98;2.15;;;7.20;99.90;;;;;;5026471;28;20108;-87
2022/02/22 10:14:24;;;;;;;16.00;2.22;;;7.20;99.90;;;;;;5016346;28;20148;-86
2022/02/22 10:16:51;;;;;;;7.47;1.05;;;7.30;99.90;;;;;;5041205;28;20029;-86
2022/02/22 10:19:17;;;;;;;8.55;1.05;;;7.30;99.90;;;;;;5053721;28;20052;-88
2022/02/22 10:21:52;;;;;;;11.52;1.67;;;7.30;99.90;;;;;;5035962;28;20040;-88
2022/02/22 10:24:19;;;;;;;10.85;1.25;;;7.40;99.90;;;;;;5050173;28;20027;-87
2022/02/22 10:26:46;;;;;;;11.65;0.98;;;7.40;99.90;;;;;;5018243;28;20040;-87
2022/02/22 10:29:16;;;;;;;17.88;1.27;;;7.40;99.90;;;;;;5034740;28;20036;-88
2022/02/22 10:31:43;;;;;;;8.88;1.00;;;7.40;99.90;;;;;;5043428;28;20036;-90
2022/02/22 10:34:09;;;;;;;9.98;1.00;;;7.40;99.90;;;;;;5031527;28;20059;-87
2022/02/22 10:36:47;;;;;;;9.05;1.23;;;7.50;99.90;;;;;;5019251;28;20725;-87
2022/02/22 10:39:17;;;;;;;11.77;1.60;;;7.50;99.90;;;;;;5022057;28;20029;-89
2022/02/22 10:41:46;;;;;;;12.70;1.17;;;7.50;99.90;;;;;;5035495;28;20048;-89
2022/02/22 10:44:22;;;;;;;12.25;1.45;;;7.50;99.90;;;;;;5038511;28;20033;-87
2022/02/22 10:46:49;;;;;;;12.82;1.27;;;7.40;99.90;;;;;;5024570;28;20037;-88
2022/02/22 10:49:18;;;;;;;15.18;2.05;;;7.40;99.90;;;;;;5038261;28;20162;-89
2022/02/22 10:51:48;;;;;;;14.30;1.85;;;7.30;99.90;;;;;;5021901;28;20072;-88
2022/02/22 10:54:21;;;;;;;20.92;1.85;;;7.30;99.90;;;;;;5020088;28;20098;-89
2022/02/22 10:56:48;;;;;;;14.57;1.90;;;7.30;99.90;;;;;;5036544;28;20498;-88
2022/02/22 10:59:13;;;;;;;9.27;1.10;;;7.20;99.90;;;;;;5054755;28;20037;-89
2022/02/22 11:01:39;;;;;;;10.25;1.45;;;7.30;99.90;;;;;;5047883;28;20028;-90
2022/02/22 11:04:06;;;;;;;14.45;1.73;;;7.30;99.90;;;;;;5051319;28;20514;-89
2022/02/22 11:06:32;;;;;;;17.15;2.00;;;7.30;99.90;;;;;;5039641;28;20029;-89
2022/02/22 11:08:58;;;;;;;17.92;1.70;;;7.30;99.90;;;;;;5018692;28;22315;-89
2022/02/22 11:11:38;;;;;;;18.48;1.98;;;7.50;99.90;;;;;;5051151;28;20032;-88
2022/02/22 11:14:17;;;;;;;10.68;0.93;;;7.50;99.90;;;;;;5030419;28;20044;-90
2022/02/22 11:16:53;;;;;;;12.32;1.13;;;7.70;99.90;;;;;;5040819;28;20119;-92
2022/02/22 11:19:33;;;;;;;19.63;2.00;;;7.70;99.90;;;;;;5036587;28;20036;-91
2022/02/22 11:22:10;;;;;;;13.15;1.60;;;7.70;99.90;;;;;;5036476;28;20029;-89
2022/02/22 11:24:44;;;;;;;14.40;1.75;;;7.60;99.90;;;;;;5036025;28;20106;-89
2022/02/22 11:27:09;;;;;;;9.48;0.80;;;7.70;99.90;;;;;;5035828;28;20047;-88
2022/02/22 11:29:36;;;;;;;12.75;1.60;;;7.70;99.90;;;;;;5052735;28;20037;-89
2022/02/22 11:32:03;;;;;;;16.08;1.73;;;7.70;99.90;;;;;;5041253;28;20025;-91
2022/02/22 11:34:32;;;;;;;16.58;1.58;;;7.60;99.90;;;;;;5023887;28;20032;-91
2022/02/22 11:36:59;;;;;;;11.95;1.13;;;7.60;99.90;;;;;;5038956;28;20055;-90
2022/02/22 11:39:25;;;;;;;16.27;1.13;;;7.60;99.90;;;;;;5018879;28;20040;-89
2022/02/22 11:41:51;;;;;;;18.75;2.40;;;7.50;99.90;;;;;;5059282;28;20028;-88
2022/02/22 11:44:19;;;;;;;13.15;1.70;;;7.40;99.90;;;;;;5051979;28;20408;-89
2022/02/22 11:46:52;;;;;;;15.45;2.10;;;7.40;99.90;;;;;;5049683;28;20033;-87
2022/02/22 11:49:25;;;;;;;13.35;1.27;;;7.40;99.90;;;;;;5019875;28;20032;-89
2022/02/22 11:51:56;;;;;;;11.75;1.33;;;7.50;99.90;;;;;;5052494;28;20854;-92
2022/02/22 11:54:26;;;;;;;16.88;1.73;;;7.50;99.90;;;;;;5031144;28;22628;-89
2022/02/22 11:57:07;;;;;;;19.65;2.25;;;7.50;99.90;;;;;;5053939;28;20033;-91
2022/02/22 11:59:53;;;;;;;15.48;2.40;;;7.40;99.90;;;;;;5052947;28;20072;-89
2022/02/22 12:02:30;;;;;;;17.50;2.08;;;7.40;99.90;;;;;;5035670;28;20039;-91
2022/02/22 12:04:56;;;;;;;15.82;1.67;;;7.30;99.90;;;;;;5053695;28;20083;-90
2022/02/22 12:07:30;;;;;;;10.77;1.65;;;7.30;99.90;;;;;;5056332;28;20032;-88
2022/02/22 12:09:57;;;;;;;21.25;2.78;;;7.20;99.90;;;;;;5065077;28;20465;-88
2022/02/22 12:12:24;;;;;;;19.88;2.75;;;7.20;99.90;;;;;;5036162;28;20036;-90
2022/02/22 12:14:58;;;;;;;10.40;2.00;;;7.20;99.90;;;;;;5044706;28;20071;-89
2022/02/22 12:17:24;;;;;;;14.57;1.50;;;7.30;99.90;;;;;;5052949;28;20136;-90
2022/02/22 12:19:52;;;;;;;10.32;0.82;;;7.30;99.90;;;;;;5036509;28;20033;-89
2022/02/22 12:22:23;;;;;;;15.35;1.90;;;7.30;99.90;;;;;;5042438;28;20143;-88
2022/02/22 12:24:58;;;;;;;18.25;2.15;;;7.30;99.90;;;;;;5035137;28;20081;-88
2022/02/22 12:27:28;;;;;;;15.95;2.45;;;7.30;99.90;;;;;;5038867;28;20464;-86
2022/02/22 12:29:55;;;;;;;10.70;1.20;;;7.30;99.90;;;;;;5036220;28;20036;-88
2022/02/22 12:32:25;;;;;;;19.23;1.90;;;7.40;99.90;;;;;;5036014;28;20213;-90
2022/02/22 12:34:53;;;;;;;9.63;1.42;;;7.40;99.90;;;;;;5052168;28;20035;-90
2022/02/22 12:37:19;;;;;;;18.38;1.70;;;7.40;99.90;;;;;;5037778;28;20024;-88
2022/02/22 12:39:45;;;;;;;13.05;2.10;;;7.50;99.90;;;;;;5020952;28;20043;-87
2022/02/22 12:42:12;;;;;;;22.00;2.83;;;7.50;99.90;;;;;;5036422;28;20101;-89
2022/02/22 12:44:39;;;;;;;12.02;1.98;;;7.60;99.90;;;;;;5036772;28;20025;-90
2022/02/22 12:47:05;;;;;;;20.17;2.80;;;7.60;99.90;;;;;;5022723;28;20471;-89
2022/02/22 12:49:31;;;;;;;12.77;1.33;;;7.70;99.90;;;;;;5035814;28;20036;-89